sensor_id;sensor_type;location;lat;lon;timestamp;pressure;altitude;pressure_sealevel;temperature;humidity
7333;BME280;3707;43.618;25.342;2023-01-26T00:02:22;101193.06;;;1.88;100.00
7333;BME280;3707;43.618;25.342;2023-01-26T00:04:49;101192.44;;;1.79;100.00
7333;BME280;3707;43.618;25.342;2023-01-26T00:07:16;101178.16;;;1.69;100.00
7333;BME280;3707;43.618;25.342;2023-01-26T00:09:42;101196.88;;;1.81;100.00
7333;BME280;3707;43.618;25.342;2023-01-26T00:12:09;101175.63;;;1.58;100.00
7333;BME280;3707;43.618;25.342;2023-01-26T00:14:36;101177.38;;;1.70;100.00
7333;BME280;3707;43.618;25.342;2023-01-26T00:17:19;101185.22;;;1.98;100.00
7333;BME280;3707;43.618;25.342;2023-01-26T00:19:55;101183.94;;;1.91;100.00
7333;BME280;3707;43.618;25.342;2023-01-26T00:22:25;101180.84;;;1.84;100.00
7333;BME280;3707;43.618;25.342;2023-01-26T00:24:52;101187.75;;;1.85;100.00
7333;BME280;3707;43.618;25.342;2023-01-26T00:27:19;101187.16;;;1.89;100.00
7333;BME280;3707;43.618;25.342;2023-01-26T00:29:45;101181.16;;;1.88;100.00
7333;BME280;3707;43.618;25.342;2023-01-26T00:32:12;101178.28;;;1.84;100.00
7333;BME280;3707;43.618;25.342;2023-01-26T00:34:39;101188.69;;;1.74;100.00
7333;BME280;3707;43.618;25.342;2023-01-26T00:37:07;101179.75;;;1.80;100.00
7333;BME280;3707;43.618;25.342;2023-01-26T00:39:34;101176.81;;;1.87;100.00
7333;BME280;3707;43.618;25.342;2023-01-26T00:42:01;101169.91;;;1.73;100.00
7333;BME280;3707;43.618;25.342;2023-01-26T00:44:39;101167.94;;;1.82;100.00
7333;BME280;3707;43.618;25.342;2023-01-26T00:47:10;101125.63;;;1.61;100.00
7333;BME280;3707;43.618;25.342;2023-01-26T00:49:37;101165.56;;;1.72;100.00
7333;BME280;3707;43.618;25.342;2023-01-26T00:52:04;101124.25;;;1.53;100.00
7333;BME280;3707;43.618;25.342;2023-01-26T00:54:33;101146.22;;;1.76;100.00
7333;BME280;3707;43.618;25.342;2023-01-26T00:57:00;101127.41;;;1.62;100.00
7333;BME280;3707;43.618;25.342;2023-01-26T00:59:27;101025.72;;;1.07;100.00
7333;BME280;3707;43.618;25.342;2023-01-26T01:01:54;101121.56;;;1.52;100.00
7333;BME280;3707;43.618;25.342;2023-01-26T01:04:21;101118.81;;;1.48;100.00
7333;BME280;3707;43.618;25.342;2023-01-26T01:06:47;101116.97;;;1.59;100.00
7333;BME280;3707;43.618;25.342;2023-01-26T01:09:14;101112.75;;;1.60;100.00
7333;BME280;3707;43.618;25.342;2023-01-26T01:11:42;101105.66;;;1.56;100.00
7333;BME280;3707;43.618;25.342;2023-01-26T01:14:10;101102.09;;;1.54;100.00
7333;BME280;3707;43.618;25.342;2023-01-26T01:16:37;101086.16;;;1.44;100.00
7333;BME280;3707;43.618;25.342;2023-01-26T01:19:05;101097.22;;;1.57;100.00
7333;BME280;3707;43.618;25.342;2023-01-26T01:21:32;101094.06;;;1.61;100.00
7333;BME280;3707;43.618;25.342;2023-01-26T01:24:00;101095.63;;;1.59;100.00
7333;BME280;3707;43.618;25.342;2023-01-26T01:26:27;101097.56;;;1.74;100.00
7333;BME280;3707;43.618;25.342;2023-01-26T01:28:55;100981.75;;;1.11;100.00
7333;BME280;3707;43.618;25.342;2023-01-26T01:31:23;101093.28;;;1.62;100.00
7333;BME280;3707;43.618;25.342;2023-01-26T01:33:51;101089.97;;;1.76;100.00
7333;BME280;3707;43.618;25.342;2023-01-26T01:36:18;101048.63;;;1.43;100.00
7333;BME280;3707;43.618;25.342;2023-01-26T01:38:46;101068.31;;;1.58;100.00
7333;BME280;3707;43.618;25.342;2023-01-26T01:41:14;101081.50;;;1.64;100.00
7333;BME280;3707;43.618;25.342;2023-01-26T01:43:41;101058.25;;;1.47;100.00
7333;BME280;3707;43.618;25.342;2023-01-26T01:46:16;101063.28;;;1.46;100.00
7333;BME280;3707;43.618;25.342;2023-01-26T01:48:50;101060.44;;;1.55;100.00
7333;BME280;3707;43.618;25.342;2023-01-26T01:51:21;101076.03;;;1.71;100.00
7333;BME280;3707;43.618;25.342;2023-01-26T01:53:50;101089.00;;;1.87;100.00
7333;BME280;3707;43.618;25.342;2023-01-26T01:56:20;101057.38;;;1.47;100.00
7333;BME280;3707;43.618;25.342;2023-01-26T01:58:51;101087.41;;;1.76;100.00
7333;BME280;3707;43.618;25.342;2023-01-26T02:01:20;101077.75;;;1.72;100.00
7333;BME280;3707;43.618;25.342;2023-01-26T02:03:49;101082.69;;;1.69;100.00
7333;BME280;3707;43.618;25.342;2023-01-26T02:06:20;101074.44;;;1.73;100.00
7333;BME280;3707;43.618;25.342;2023-01-26T02:08:50;101086.25;;;1.84;100.00
7333;BME280;3707;43.618;25.342;2023-01-26T02:11:19;101083.50;;;1.94;100.00
7333;BME280;3707;43.618;25.342;2023-01-26T02:13:48;101082.22;;;2.00;100.00
7333;BME280;3707;43.618;25.342;2023-01-26T02:16:16;101082.34;;;2.02;100.00
7333;BME280;3707;43.618;25.342;2023-01-26T02:18:45;101074.25;;;1.83;100.00
7333;BME280;3707;43.618;25.342;2023-01-26T02:21:14;101047.09;;;1.72;100.00
7333;BME280;3707;43.618;25.342;2023-01-26T02:23:49;101009.84;;;1.49;100.00
7333;BME280;3707;43.618;25.342;2023-01-26T02:26:22;101024.28;;;1.48;100.00
7333;BME280;3707;43.618;25.342;2023-01-26T02:28:50;101046.38;;;1.48;100.00
7333;BME280;3707;43.618;25.342;2023-01-26T02:31:17;101042.34;;;1.38;100.00
7333;BME280;3707;43.618;25.342;2023-01-26T02:33:44;101012.13;;;1.20;100.00
7333;BME280;3707;43.618;25.342;2023-01-26T02:36:17;101038.41;;;1.43;100.00
7333;BME280;3707;43.618;25.342;2023-01-26T02:38:50;101030.06;;;1.46;100.00
7333;BME280;3707;43.618;25.342;2023-01-26T02:41:18;101014.13;;;1.50;100.00
7333;BME280;3707;43.618;25.342;2023-01-26T02:44:03;101017.50;;;1.49;100.00
7333;BME280;3707;43.618;25.342;2023-01-26T02:46:32;101015.59;;;1.46;100.00
7333;BME280;3707;43.618;25.342;2023-01-26T02:48:58;100954.53;;;1.12;100.00
7333;BME280;3707;43.618;25.342;2023-01-26T02:51:42;100984.72;;;1.30;100.00
7333;BME280;3707;43.618;25.342;2023-01-26T02:54:09;100996.81;;;1.33;100.00
7333;BME280;3707;43.618;25.342;2023-01-26T02:56:56;100995.00;;;1.19;100.00
7333;BME280;3707;43.618;25.342;2023-01-26T02:59:24;100991.72;;;1.33;100.00
7333;BME280;3707;43.618;25.342;2023-01-26T03:01:51;100989.84;;;1.30;100.00
7333;BME280;3707;43.618;25.342;2023-01-26T03:04:18;100977.25;;;1.20;100.00
7333;BME280;3707;43.618;25.342;2023-01-26T03:06:45;100978.34;;;1.24;100.00
7333;BME280;3707;43.618;25.342;2023-01-26T03:09:12;100976.25;;;1.18;100.00
7333;BME280;3707;43.618;25.342;2023-01-26T03:11:39;100973.81;;;1.33;100.00
7333;BME280;3707;43.618;25.342;2023-01-26T03:14:07;100970.38;;;1.32;100.00
7333;BME280;3707;43.618;25.342;2023-01-26T03:16:36;100979.06;;;1.47;100.00
7333;BME280;3707;43.618;25.342;2023-01-26T03:19:03;100977.09;;;1.43;100.00
7333;BME280;3707;43.618;25.342;2023-01-26T03:21:47;100949.38;;;1.36;100.00
7333;BME280;3707;43.618;25.342;2023-01-26T03:24:31;100968.38;;;1.53;100.00
7333;BME280;3707;43.618;25.342;2023-01-26T03:27:15;100969.59;;;1.20;100.00
7333;BME280;3707;43.618;25.342;2023-01-26T03:29:53;100955.25;;;1.22;100.00
7333;BME280;3707;43.618;25.342;2023-01-26T03:32:22;100959.78;;;1.39;100.00
7333;BME280;3707;43.618;25.342;2023-01-26T03:34:49;100954.09;;;1.30;100.00
7333;BME280;3707;43.618;25.342;2023-01-26T03:37:19;100937.16;;;1.32;100.00
7333;BME280;3707;43.618;25.342;2023-01-26T03:39:48;100946.03;;;1.37;100.00
7333;BME280;3707;43.618;25.342;2023-01-26T03:42:33;100947.63;;;1.35;100.00
7333;BME280;3707;43.618;25.342;2023-01-26T03:45:17;100944.06;;;1.33;100.00
7333;BME280;3707;43.618;25.342;2023-01-26T03:48:07;100940.53;;;1.31;100.00
7333;BME280;3707;43.618;25.342;2023-01-26T03:50:51;100926.75;;;1.29;100.00
7333;BME280;3707;43.618;25.342;2023-01-26T03:53:35;100920.00;;;1.30;100.00
7333;BME280;3707;43.618;25.342;2023-01-26T03:56:19;100925.59;;;1.24;100.00
7333;BME280;3707;43.618;25.342;2023-01-26T03:58:50;100923.91;;;1.51;100.00
7333;BME280;3707;43.618;25.342;2023-01-26T04:01:18;100909.56;;;1.40;100.00
7333;BME280;3707;43.618;25.342;2023-01-26T04:03:50;100920.91;;;1.57;100.00
7333;BME280;3707;43.618;25.342;2023-01-26T04:06:36;100917.34;;;1.41;100.00
7333;BME280;3707;43.618;25.342;2023-01-26T04:09:20;100932.06;;;1.32;100.00
7333;BME280;3707;43.618;25.342;2023-01-26T04:11:48;100900.03;;;1.50;100.00
7333;BME280;3707;43.618;25.342;2023-01-26T04:14:15;100923.13;;;1.65;100.00
7333;BME280;3707;43.618;25.342;2023-01-26T04:17:00;100924.44;;;1.45;100.00
7333;BME280;3707;43.618;25.342;2023-01-26T04:19:46;100917.44;;;1.43;100.00
7333;BME280;3707;43.618;25.342;2023-01-26T04:22:34;100917.03;;;1.50;100.00
7333;BME280;3707;43.618;25.342;2023-01-26T04:25:06;100923.34;;;1.42;100.00
7333;BME280;3707;43.618;25.342;2023-01-26T04:27:32;100924.25;;;1.42;100.00
7333;BME280;3707;43.618;25.342;2023-01-26T04:29:59;100925.00;;;1.41;100.00
7333;BME280;3707;43.618;25.342;2023-01-26T04:32:26;100912.63;;;1.34;100.00
7333;BME280;3707;43.618;25.342;2023-01-26T04:34:54;100893.34;;;1.26;100.00
7333;BME280;3707;43.618;25.342;2023-01-26T04:37:21;100910.28;;;1.37;100.00
7333;BME280;3707;43.618;25.342;2023-01-26T04:39:48;100895.53;;;1.20;100.00
7333;BME280;3707;43.618;25.342;2023-01-26T04:42:15;100886.47;;;1.25;100.00
7333;BME280;3707;43.618;25.342;2023-01-26T04:44:41;100900.31;;;1.29;100.00
7333;BME280;3707;43.618;25.342;2023-01-26T04:47:08;100828.22;;;0.80;100.00
7333;BME280;3707;43.618;25.342;2023-01-26T04:49:35;100879.22;;;1.31;100.00
7333;BME280;3707;43.618;25.342;2023-01-26T04:52:03;100873.13;;;1.29;100.00
7333;BME280;3707;43.618;25.342;2023-01-26T04:54:30;100899.53;;;1.43;100.00
7333;BME280;3707;43.618;25.342;2023-01-26T04:56:57;100895.81;;;1.38;100.00
7333;BME280;3707;43.618;25.342;2023-01-26T04:59:24;100892.19;;;1.47;100.00
7333;BME280;3707;43.618;25.342;2023-01-26T05:01:50;100881.25;;;1.50;100.00
7333;BME280;3707;43.618;25.342;2023-01-26T05:04:17;100899.06;;;1.48;100.00
7333;BME280;3707;43.618;25.342;2023-01-26T05:06:44;100867.44;;;1.20;100.00
7333;BME280;3707;43.618;25.342;2023-01-26T05:09:12;100863.81;;;1.17;100.00
7333;BME280;3707;43.618;25.342;2023-01-26T05:11:39;100892.59;;;1.27;100.00
7333;BME280;3707;43.618;25.342;2023-01-26T05:14:06;100890.81;;;1.26;100.00
7333;BME280;3707;43.618;25.342;2023-01-26T05:16:32;100891.19;;;1.32;100.00
7333;BME280;3707;43.618;25.342;2023-01-26T05:18:59;100889.63;;;1.34;100.00
7333;BME280;3707;43.618;25.342;2023-01-26T05:21:26;100866.34;;;1.30;100.00
7333;BME280;3707;43.618;25.342;2023-01-26T05:23:53;100884.72;;;1.37;100.00
7333;BME280;3707;43.618;25.342;2023-01-26T05:26:22;100882.75;;;1.33;100.00
7333;BME280;3707;43.618;25.342;2023-01-26T05:28:48;100871.75;;;1.21;100.00
7333;BME280;3707;43.618;25.342;2023-01-26T05:31:15;100879.44;;;1.21;100.00
7333;BME280;3707;43.618;25.342;2023-01-26T05:33:42;100879.97;;;1.04;100.00
7333;BME280;3707;43.618;25.342;2023-01-26T05:36:09;100866.81;;;1.11;100.00
7333;BME280;3707;43.618;25.342;2023-01-26T05:38:35;100863.69;;;1.15;100.00
7333;BME280;3707;43.618;25.342;2023-01-26T05:41:02;100865.47;;;1.16;100.00
7333;BME280;3707;43.618;25.342;2023-01-26T05:43:30;100860.94;;;1.25;100.00
7333;BME280;3707;43.618;25.342;2023-01-26T05:45:57;100863.97;;;1.33;100.00
7333;BME280;3707;43.618;25.342;2023-01-26T05:48:24;100831.09;;;1.24;100.00
7333;BME280;3707;43.618;25.342;2023-01-26T05:50:51;100853.50;;;1.28;100.00
7333;BME280;3707;43.618;25.342;2023-01-26T05:53:20;100816.03;;;1.29;100.00
7333;BME280;3707;43.618;25.342;2023-01-26T05:55:47;100841.88;;;1.33;100.00
7333;BME280;3707;43.618;25.342;2023-01-26T05:58:14;100849.91;;;1.39;100.00
7333;BME280;3707;43.618;25.342;2023-01-26T06:00:42;100848.97;;;1.24;100.00
7333;BME280;3707;43.618;25.342;2023-01-26T06:03:09;100845.84;;;1.28;100.00
7333;BME280;3707;43.618;25.342;2023-01-26T06:05:35;100838.44;;;1.33;100.00
7333;BME280;3707;43.618;25.342;2023-01-26T06:08:03;100845.22;;;1.32;100.00
7333;BME280;3707;43.618;25.342;2023-01-26T06:10:30;100849.75;;;1.23;100.00
7333;BME280;3707;43.618;25.342;2023-01-26T06:12:56;100833.22;;;1.18;100.00
7333;BME280;3707;43.618;25.342;2023-01-26T06:15:23;100840.31;;;1.35;100.00
7333;BME280;3707;43.618;25.342;2023-01-26T06:17:51;100816.63;;;1.38;100.00
7333;BME280;3707;43.618;25.342;2023-01-26T06:20:18;100825.56;;;1.44;100.00
7333;BME280;3707;43.618;25.342;2023-01-26T06:22:45;100813.09;;;1.36;100.00
7333;BME280;3707;43.618;25.342;2023-01-26T06:25:12;100805.69;;;1.54;100.00
7333;BME280;3707;43.618;25.342;2023-01-26T06:27:38;100808.47;;;1.43;100.00
7333;BME280;3707;43.618;25.342;2023-01-26T06:30:07;100809.66;;;1.35;100.00
7333;BME280;3707;43.618;25.342;2023-01-26T06:32:34;100804.34;;;1.32;100.00
7333;BME280;3707;43.618;25.342;2023-01-26T06:35:03;100795.81;;;1.32;100.00
7333;BME280;3707;43.618;25.342;2023-01-26T06:37:31;100787.16;;;1.30;100.00
7333;BME280;3707;43.618;25.342;2023-01-26T06:39:58;100779.19;;;1.25;100.00
7333;BME280;3707;43.618;25.342;2023-01-26T06:42:25;100785.31;;;1.27;100.00
7333;BME280;3707;43.618;25.342;2023-01-26T06:44:51;100788.75;;;1.28;100.00
7333;BME280;3707;43.618;25.342;2023-01-26T06:47:18;100779.56;;;1.44;100.00
7333;BME280;3707;43.618;25.342;2023-01-26T06:49:45;100781.97;;;1.28;100.00
7333;BME280;3707;43.618;25.342;2023-01-26T06:52:25;100768.16;;;1.39;100.00
7333;BME280;3707;43.618;25.342;2023-01-26T06:54:53;100739.34;;;1.27;100.00
7333;BME280;3707;43.618;25.342;2023-01-26T06:57:20;100763.78;;;1.37;100.00
7333;BME280;3707;43.618;25.342;2023-01-26T06:59:47;100769.06;;;1.40;100.00
7333;BME280;3707;43.618;25.342;2023-01-26T07:02:16;100742.38;;;1.35;100.00
7333;BME280;3707;43.618;25.342;2023-01-26T07:04:44;100764.91;;;1.55;100.00
7333;BME280;3707;43.618;25.342;2023-01-26T07:07:10;100765.63;;;1.39;100.00
7333;BME280;3707;43.618;25.342;2023-01-26T07:09:39;100767.66;;;1.58;100.00
7333;BME280;3707;43.618;25.342;2023-01-26T07:12:05;100761.31;;;1.38;100.00
7333;BME280;3707;43.618;25.342;2023-01-26T07:14:32;100761.97;;;1.49;100.00
7333;BME280;3707;43.618;25.342;2023-01-26T07:16:59;100770.19;;;1.58;100.00
7333;BME280;3707;43.618;25.342;2023-01-26T07:19:27;100723.56;;;1.47;100.00
7333;BME280;3707;43.618;25.342;2023-01-26T07:21:54;100774.19;;;1.68;100.00
7333;BME280;3707;43.618;25.342;2023-01-26T07:24:21;100773.75;;;1.88;100.00
7333;BME280;3707;43.618;25.342;2023-01-26T07:26:50;100750.81;;;1.75;100.00
7333;BME280;3707;43.618;25.342;2023-01-26T07:29:16;100772.69;;;1.84;100.00
7333;BME280;3707;43.618;25.342;2023-01-26T07:31:43;100775.66;;;1.77;100.00
7333;BME280;3707;43.618;25.342;2023-01-26T07:34:10;100745.94;;;1.52;100.00
7333;BME280;3707;43.618;25.342;2023-01-26T07:36:37;100767.59;;;1.71;100.00
7333;BME280;3707;43.618;25.342;2023-01-26T07:39:04;100747.72;;;1.53;100.00
7333;BME280;3707;43.618;25.342;2023-01-26T07:41:31;100770.84;;;1.69;100.00
7333;BME280;3707;43.618;25.342;2023-01-26T07:43:59;100735.03;;;1.54;100.00
7333;BME280;3707;43.618;25.342;2023-01-26T07:46:26;100762.22;;;1.67;100.00
7333;BME280;3707;43.618;25.342;2023-01-26T07:48:53;100759.59;;;1.80;100.00
7333;BME280;3707;43.618;25.342;2023-01-26T07:51:20;100761.41;;;1.68;100.00
7333;BME280;3707;43.618;25.342;2023-01-26T07:53:46;100754.78;;;1.84;100.00
7333;BME280;3707;43.618;25.342;2023-01-26T07:56:15;100730.97;;;1.58;100.00
7333;BME280;3707;43.618;25.342;2023-01-26T07:58:48;100762.28;;;1.81;100.00
7333;BME280;3707;43.618;25.342;2023-01-26T08:01:16;100759.97;;;1.86;100.00
7333;BME280;3707;43.618;25.342;2023-01-26T08:03:43;100750.69;;;1.73;100.00
7333;BME280;3707;43.618;25.342;2023-01-26T08:06:11;100748.44;;;1.78;100.00
7333;BME280;3707;43.618;25.342;2023-01-26T08:08:38;100744.03;;;1.62;100.00
7333;BME280;3707;43.618;25.342;2023-01-26T08:11:07;100745.25;;;1.82;100.00
7333;BME280;3707;43.618;25.342;2023-01-26T08:13:34;100741.84;;;2.11;100.00
7333;BME280;3707;43.618;25.342;2023-01-26T08:16:02;100733.38;;;1.97;100.00
7333;BME280;3707;43.618;25.342;2023-01-26T08:18:31;100737.53;;;1.95;100.00
7333;BME280;3707;43.618;25.342;2023-01-26T08:20:57;100725.59;;;1.81;100.00
7333;BME280;3707;43.618;25.342;2023-01-26T08:23:24;100731.66;;;1.83;100.00
7333;BME280;3707;43.618;25.342;2023-01-26T08:25:51;100718.72;;;1.80;100.00
7333;BME280;3707;43.618;25.342;2023-01-26T08:28:18;100710.41;;;1.69;100.00
7333;BME280;3707;43.618;25.342;2023-01-26T08:30:45;100711.28;;;1.70;100.00
7333;BME280;3707;43.618;25.342;2023-01-26T08:33:12;100711.03;;;1.80;100.00
7333;BME280;3707;43.618;25.342;2023-01-26T08:35:40;100675.59;;;1.86;100.00
7333;BME280;3707;43.618;25.342;2023-01-26T08:38:07;100703.75;;;2.00;100.00
7333;BME280;3707;43.618;25.342;2023-01-26T08:40:34;100692.63;;;2.00;100.00
7333;BME280;3707;43.618;25.342;2023-01-26T08:43:01;100684.88;;;1.98;100.00
7333;BME280;3707;43.618;25.342;2023-01-26T08:45:28;100683.28;;;2.00;100.00
7333;BME280;3707;43.618;25.342;2023-01-26T08:47:55;100714.88;;;2.01;100.00
7333;BME280;3707;43.618;25.342;2023-01-26T08:50:23;100672.69;;;1.80;100.00
7333;BME280;3707;43.618;25.342;2023-01-26T08:52:54;100700.06;;;1.95;100.00
7333;BME280;3707;43.618;25.342;2023-01-26T08:55:21;100685.59;;;2.11;100.00
7333;BME280;3707;43.618;25.342;2023-01-26T08:57:51;100681.97;;;2.07;100.00
7333;BME280;3707;43.618;25.342;2023-01-26T09:00:20;100685.16;;;2.32;100.00
7333;BME280;3707;43.618;25.342;2023-01-26T09:02:47;100688.78;;;2.07;100.00
7333;BME280;3707;43.618;25.342;2023-01-26T09:05:14;100693.53;;;2.15;100.00
7333;BME280;3707;43.618;25.342;2023-01-26T09:07:41;100687.53;;;2.00;100.00
7333;BME280;3707;43.618;25.342;2023-01-26T09:10:10;100678.78;;;2.11;100.00
7333;BME280;3707;43.618;25.342;2023-01-26T09:12:37;100634.81;;;2.02;100.00
7333;BME280;3707;43.618;25.342;2023-01-26T09:15:06;100675.72;;;2.31;100.00
7333;BME280;3707;43.618;25.342;2023-01-26T09:17:33;100645.91;;;2.17;100.00
7333;BME280;3707;43.618;25.342;2023-01-26T09:20:00;100652.94;;;2.21;100.00
7333;BME280;3707;43.618;25.342;2023-01-26T09:22:26;100658.25;;;2.24;100.00
7333;BME280;3707;43.618;25.342;2023-01-26T09:24:54;100659.31;;;2.42;100.00
7333;BME280;3707;43.618;25.342;2023-01-26T09:27:22;100613.72;;;2.35;100.00
7333;BME280;3707;43.618;25.342;2023-01-26T09:29:48;100639.16;;;2.48;100.00
7333;BME280;3707;43.618;25.342;2023-01-26T09:32:16;100642.34;;;2.44;100.00
7333;BME280;3707;43.618;25.342;2023-01-26T09:34:43;100635.56;;;2.45;100.00
7333;BME280;3707;43.618;25.342;2023-01-26T09:37:10;100614.50;;;2.34;100.00
7333;BME280;3707;43.618;25.342;2023-01-26T09:39:37;100618.16;;;2.39;100.00
7333;BME280;3707;43.618;25.342;2023-01-26T09:42:24;100607.84;;;2.53;100.00
7333;BME280;3707;43.618;25.342;2023-01-26T09:44:59;100605.72;;;2.76;100.00
7333;BME280;3707;43.618;25.342;2023-01-26T09:47:30;100606.84;;;2.50;100.00
7333;BME280;3707;43.618;25.342;2023-01-26T09:50:07;100591.91;;;2.42;100.00
7333;BME280;3707;43.618;25.342;2023-01-26T09:52:40;100600.00;;;2.49;100.00
7333;BME280;3707;43.618;25.342;2023-01-26T09:55:14;100559.63;;;2.76;100.00
7333;BME280;3707;43.618;25.342;2023-01-26T09:57:47;100576.28;;;3.00;100.00
7333;BME280;3707;43.618;25.342;2023-01-26T10:00:19;100576.31;;;2.84;100.00
7333;BME280;3707;43.618;25.342;2023-01-26T10:02:54;100603.91;;;2.90;100.00
7333;BME280;3707;43.618;25.342;2023-01-26T10:05:33;100586.69;;;2.87;100.00
7333;BME280;3707;43.618;25.342;2023-01-26T10:08:01;100574.84;;;2.73;100.00
7333;BME280;3707;43.618;25.342;2023-01-26T10:10:36;100603.53;;;2.98;100.00
7333;BME280;3707;43.618;25.342;2023-01-26T10:13:07;100575.09;;;2.78;100.00
7333;BME280;3707;43.618;25.342;2023-01-26T10:15:36;100604.78;;;2.90;100.00
7333;BME280;3707;43.618;25.342;2023-01-26T10:18:06;100596.09;;;3.03;100.00
7333;BME280;3707;43.618;25.342;2023-01-26T10:20:35;100583.91;;;2.99;100.00
7333;BME280;3707;43.618;25.342;2023-01-26T10:23:10;100589.81;;;3.14;100.00
7333;BME280;3707;43.618;25.342;2023-01-26T10:25:39;100575.72;;;2.90;100.00
7333;BME280;3707;43.618;25.342;2023-01-26T10:28:13;100540.50;;;2.86;100.00
7333;BME280;3707;43.618;25.342;2023-01-26T10:30:42;100559.19;;;2.99;100.00
7333;BME280;3707;43.618;25.342;2023-01-26T10:33:14;100544.91;;;3.05;100.00
7333;BME280;3707;43.618;25.342;2023-01-26T10:35:42;100525.81;;;2.98;100.00
7333;BME280;3707;43.618;25.342;2023-01-26T10:38:37;100540.19;;;3.12;100.00
7333;BME280;3707;43.618;25.342;2023-01-26T10:41:06;100536.31;;;3.36;100.00
7333;BME280;3707;43.618;25.342;2023-01-26T10:43:50;100530.16;;;3.33;100.00
7333;BME280;3707;43.618;25.342;2023-01-26T10:46:24;100528.69;;;3.54;100.00
7333;BME280;3707;43.618;25.342;2023-01-26T10:48:52;100522.66;;;3.54;100.00
7333;BME280;3707;43.618;25.342;2023-01-26T10:51:24;100492.25;;;3.43;100.00
7333;BME280;3707;43.618;25.342;2023-01-26T10:54:12;100520.44;;;3.60;100.00
7333;BME280;3707;43.618;25.342;2023-01-26T10:56:43;100503.88;;;3.53;100.00
7333;BME280;3707;43.618;25.342;2023-01-26T10:59:16;100498.88;;;3.56;100.00
7333;BME280;3707;43.618;25.342;2023-01-26T11:01:54;100482.34;;;3.49;100.00
7333;BME280;3707;43.618;25.342;2023-01-26T11:04:22;100460.09;;;3.32;100.00
7333;BME280;3707;43.618;25.342;2023-01-26T11:06:49;100436.00;;;3.29;100.00
7333;BME280;3707;43.618;25.342;2023-01-26T11:09:20;100470.69;;;3.56;100.00
7333;BME280;3707;43.618;25.342;2023-01-26T11:11:59;100441.31;;;3.49;100.00
7333;BME280;3707;43.618;25.342;2023-01-26T11:14:30;100470.84;;;3.77;100.00
7333;BME280;3707;43.618;25.342;2023-01-26T11:17:08;100474.44;;;3.80;100.00
7333;BME280;3707;43.618;25.342;2023-01-26T11:19:54;100462.25;;;3.76;100.00
7333;BME280;3707;43.618;25.342;2023-01-26T11:22:29;100448.91;;;3.48;100.00
7333;BME280;3707;43.618;25.342;2023-01-26T11:25:06;100471.34;;;3.52;100.00
7333;BME280;3707;43.618;25.342;2023-01-26T11:27:45;100459.41;;;3.53;100.00
7333;BME280;3707;43.618;25.342;2023-01-26T11:33:14;100452.94;;;3.43;100.00
7333;BME280;3707;43.618;25.342;2023-01-26T11:35:50;100443.19;;;3.36;100.00
7333;BME280;3707;43.618;25.342;2023-01-26T11:38:30;100443.16;;;3.52;100.00
7333;BME280;3707;43.618;25.342;2023-01-26T11:41:07;100438.66;;;3.48;100.00
7333;BME280;3707;43.618;25.342;2023-01-26T11:43:55;100439.81;;;3.37;100.00
7333;BME280;3707;43.618;25.342;2023-01-26T11:46:46;100412.88;;;3.27;100.00
7333;BME280;3707;43.618;25.342;2023-01-26T11:49:25;100423.13;;;3.27;100.00
7333;BME280;3707;43.618;25.342;2023-01-26T11:52:05;100399.09;;;3.25;100.00
7333;BME280;3707;43.618;25.342;2023-01-26T11:54:46;100409.66;;;3.31;100.00
7333;BME280;3707;43.618;25.342;2023-01-26T11:57:23;100392.16;;;3.40;100.00
7333;BME280;3707;43.618;25.342;2023-01-26T11:59:55;100397.94;;;3.54;100.00
7333;BME280;3707;43.618;25.342;2023-01-26T12:02:28;100397.66;;;3.48;100.00
7333;BME280;3707;43.618;25.342;2023-01-26T12:04:56;100396.13;;;3.52;100.00
7333;BME280;3707;43.618;25.342;2023-01-26T12:07:29;100400.72;;;3.59;100.00
7333;BME280;3707;43.618;25.342;2023-01-26T12:09:59;100394.66;;;3.57;100.00
7333;BME280;3707;43.618;25.342;2023-01-26T12:12:33;100359.44;;;3.35;100.00
7333;BME280;3707;43.618;25.342;2023-01-26T12:15:04;100373.94;;;3.34;100.00
7333;BME280;3707;43.618;25.342;2023-01-26T12:17:43;100369.97;;;3.41;100.00
7333;BME280;3707;43.618;25.342;2023-01-26T12:20:26;100359.66;;;3.39;100.00
7333;BME280;3707;43.618;25.342;2023-01-26T12:23:01;100332.28;;;3.38;100.00
7333;BME280;3707;43.618;25.342;2023-01-26T12:25:31;100352.94;;;3.41;100.00
7333;BME280;3707;43.618;25.342;2023-01-26T12:28:11;100350.78;;;3.50;100.00
7333;BME280;3707;43.618;25.342;2023-01-26T12:30:47;100308.50;;;3.23;100.00
7333;BME280;3707;43.618;25.342;2023-01-26T12:33:18;100338.72;;;3.30;100.00
7333;BME280;3707;43.618;25.342;2023-01-26T12:36:15;100344.22;;;3.38;100.00
7333;BME280;3707;43.618;25.342;2023-01-26T12:38:58;100340.53;;;3.50;100.00
7333;BME280;3707;43.618;25.342;2023-01-26T12:41:36;100340.03;;;3.40;100.00
7333;BME280;3707;43.618;25.342;2023-01-26T12:44:17;100347.16;;;3.45;100.00
7333;BME280;3707;43.618;25.342;2023-01-26T12:46:51;100329.88;;;3.41;100.00
7333;BME280;3707;43.618;25.342;2023-01-26T12:49:26;100335.09;;;3.62;100.00
7333;BME280;3707;43.618;25.342;2023-01-26T12:52:01;100265.88;;;3.25;100.00
7333;BME280;3707;43.618;25.342;2023-01-26T12:54:35;100306.41;;;3.52;100.00
7333;BME280;3707;43.618;25.342;2023-01-26T12:57:06;100311.19;;;3.44;100.00
7333;BME280;3707;43.618;25.342;2023-01-26T12:59:38;100330.28;;;3.50;100.00
7333;BME280;3707;43.618;25.342;2023-01-26T13:02:18;100285.50;;;3.25;100.00
7333;BME280;3707;43.618;25.342;2023-01-26T13:04:49;100327.00;;;3.53;100.00
7333;BME280;3707;43.618;25.342;2023-01-26T13:07:31;100320.38;;;3.58;100.00
7333;BME280;3707;43.618;25.342;2023-01-26T13:12:52;100320.38;;;3.58;100.00
7333;BME280;3707;43.618;25.342;2023-01-26T13:15:23;100322.50;;;3.67;100.00
7333;BME280;3707;43.618;25.342;2023-01-26T13:17:53;100317.84;;;3.40;100.00
7333;BME280;3707;43.618;25.342;2023-01-26T13:20:45;100307.22;;;3.50;100.00
7333;BME280;3707;43.618;25.342;2023-01-26T13:23:40;100304.78;;;3.54;100.00
7333;BME280;3707;43.618;25.342;2023-01-26T13:26:22;100294.91;;;3.43;100.00